Time;durP1;ratioP1;P1;durP2;ratioP2;P2;SDS_P1;SDS_P2;PMS_P1;PMS_P2;Temp;Humidity;BMP_temperature;BMP_pressure;BME280_temperature;BME280_humidity;BME280_pressure;Samples;Min_cycle;Max_cycle;Signal;HPM_P1;HPM_P2
2022/01/02 00:00:19;;;;;;;7.95;5.55;;;;;;;4.57;100.00;99969.44;1684269;83;21058;-68
2022/01/02 00:02:52;;;;;;;6.42;4.92;;;;;;;4.60;100.00;99967.23;1692093;84;21535;-68
2022/01/02 00:05:22;;;;;;;6.75;5.30;;;;;;;4.61;100.00;99974.02;1708507;82;20999;-69
2022/01/02 00:08:03;;;;;;;7.37;5.30;;;;;;;4.57;100.00;99975.81;1691971;85;21008;-69
2022/01/02 00:10:46;;;;;;;7.35;5.15;;;;;;;4.58;100.00;99973.67;1691811;83;21075;-68
2022/01/02 00:13:19;;;;;;;6.12;4.67;;;;;;;4.58;100.00;99974.95;1691645;84;21536;-70
2022/01/02 00:15:47;;;;;;;7.55;4.35;;;;;;;4.56;100.00;99983.08;1691145;84;21075;-67
2022/01/02 00:18:18;;;;;;;4.90;3.70;;;;;;;4.55;100.00;99997.97;1687250;84;21103;-68
2022/01/02 00:20:49;;;;;;;4.97;3.90;;;;;;;4.49;100.00;100004.95;1695959;83;21515;-68
2022/01/02 00:23:21;;;;;;;5.50;3.90;;;;;;;4.45;100.00;99979.98;1696847;83;21123;-68
2022/01/02 00:25:53;;;;;;;5.17;3.90;;;;;;;4.39;100.00;100000.09;1686781;83;21079;-69
2022/01/02 00:28:20;;;;;;;4.42;3.55;;;;;;;4.44;100.00;99983.84;1691564;83;21139;-68
2022/01/02 00:30:49;;;;;;;4.97;3.50;;;;;;;4.41;100.00;99989.41;1702153;83;21088;-69
2022/01/02 00:33:18;;;;;;;5.03;3.60;;;;;;;4.42;100.00;99992.82;1695726;83;21087;-69
2022/01/02 00:35:47;;;;;;;5.85;3.70;;;;;;;4.41;100.00;99991.96;1691522;84;21123;-69
2022/01/02 00:38:21;;;;;;;6.55;4.20;;;;;;;4.41;100.00;99999.61;1702275;83;21096;-67
2022/01/02 00:40:51;;;;;;;5.45;4.05;;;;;;;4.35;100.00;100009.97;1698713;83;21048;-67
2022/01/02 00:43:24;;;;;;;5.75;3.62;;;;;;;4.36;100.00;99996.78;1714238;83;21049;-67
2022/01/02 00:45:53;;;;;;;5.28;3.25;;;;;;;4.39;100.00;100006.45;1681852;83;21110;-67
2022/01/02 00:48:29;;;;;;;4.28;3.25;;;;;;;4.42;100.00;100010.66;1692461;83;21058;-67
2022/01/02 00:51:05;;;;;;;4.90;3.40;;;;;;;4.39;100.00;100014.55;1699671;82;21572;-67
2022/01/02 00:53:36;;;;;;;3.95;2.83;;;;;;;4.43;100.00;100012.77;1688478;83;21082;-68
2022/01/02 00:56:04;;;;;;;4.50;3.20;;;;;;;4.42;100.00;100011.94;1689522;83;21551;-68
2022/01/02 00:58:53;;;;;;;4.90;3.40;;;;;;;4.43;100.00;100017.86;1696519;83;21032;-68
2022/01/02 01:01:24;;;;;;;2.60;2.40;;;;;;;4.48;100.00;100025.78;1693421;84;21057;-69
2022/01/02 01:03:54;;;;;;;3.10;2.30;;;;;;;4.45;100.00;100039.04;1691682;84;21083;-69
2022/01/02 01:06:25;;;;;;;2.80;2.33;;;;;;;4.42;100.00;100036.14;1691807;85;21040;-69
2022/01/02 01:08:57;;;;;;;2.80;2.30;;;;;;;4.35;100.00;100045.64;1690814;84;21040;-68
2022/01/02 01:11:28;;;;;;;3.52;2.47;;;;;;;4.37;100.00;100044.34;1691518;85;21544;-68
2022/01/02 01:13:58;;;;;;;3.40;2.40;;;;;;;4.37;100.00;100048.98;1688630;84;21003;-68
2022/01/02 01:16:30;;;;;;;4.35;2.72;;;;;;;4.36;100.00;100051.15;1688609;83;21071;-66
2022/01/02 01:18:57;;;;;;;3.95;2.55;;;;;;;4.34;100.00;100052.91;1698110;83;21043;-66
2022/01/02 01:21:24;;;;;;;3.05;2.40;;;;;;;4.36;100.00;100035.00;1694466;83;21137;-68
2022/01/02 01:23:52;;;;;;;3.15;2.20;;;;;;;4.31;100.00;100042.77;1691667;84;21004;-69
2022/01/02 01:26:19;;;;;;;3.17;2.30;;;;;;;4.29;100.00;100051.34;1689088;83;21344;-68
2022/01/02 01:28:47;;;;;;;2.47;2.20;;;;;;;4.31;100.00;100054.23;1709456;83;21020;-68
2022/01/02 01:31:16;;;;;;;3.47;2.12;;;;;;;4.28;100.00;100051.78;1691525;83;21606;-69
2022/01/02 01:33:43;;;;;;;2.30;2.10;;;;;;;4.26;100.00;100053.95;1695527;83;21094;-68
2022/01/02 01:36:11;;;;;;;3.02;2.12;;;;;;;4.16;100.00;100050.37;1694421;84;21077;-68
2022/01/02 01:38:38;;;;;;;2.27;2.02;;;;;;;4.16;100.00;100042.73;1700839;82;21051;-68
2022/01/02 01:41:23;;;;;;;2.33;1.90;;;;;;;4.16;100.00;100048.28;1694161;83;21055;-69
2022/01/02 01:44:05;;;;;;;;;;;;;;;4.07;100.00;100048.05;1694248;82;21016;-69
2022/01/02 01:46:22;;;;;;;2.83;1.95;;;;;;;4.05;100.00;100057.44;1700012;83;20153;-68
2022/01/02 01:48:55;;;;;;;2.80;2.05;;;;;;;4.07;100.00;100067.59;1696931;83;21524;-69
2022/01/02 01:51:25;;;;;;;2.65;1.90;;;;;;;4.07;100.00;100061.23;1707376;83;21555;-68
2022/01/02 01:53:52;;;;;;;2.00;1.80;;;;;;;4.07;100.00;100076.06;1691156;84;21111;-68
2022/01/02 01:56:19;;;;;;;3.08;1.95;;;;;;;4.05;100.00;100077.81;1691687;84;21524;-69
2022/01/02 01:58:46;;;;;;;2.25;2.05;;;;;;;4.07;100.00;100067.15;1696836;83;21035;-68
2022/01/02 02:01:15;;;;;;;2.20;2.00;;;;;;;4.05;100.00;100070.61;1698796;83;21524;-70
2022/01/02 02:03:44;;;;;;;3.12;2.27;;;;;;;4.07;100.00;100077.78;1687232;83;21044;-69
2022/01/02 02:06:11;;;;;;;1.92;1.72;;;;;;;4.08;100.00;100088.38;1692746;83;21048;-69
2022/01/02 02:08:38;;;;;;;2.90;1.95;;;;;;;4.06;100.00;100090.13;1692948;84;21052;-69
2022/01/02 02:11:05;;;;;;;2.65;1.80;;;;;;;4.10;100.00;100088.73;1683916;84;21089;-70
2022/01/02 02:13:34;;;;;;;2.40;2.20;;;;;;;4.08;100.00;100098.13;1691489;84;21102;-68
2022/01/02 02:16:04;;;;;;;3.12;2.00;;;;;;;4.03;100.00;100108.02;1696343;83;21525;-69
2022/01/02 02:18:32;;;;;;;1.72;1.62;;;;;;;4.04;100.00;100104.61;1699339;82;21483;-68
2022/01/02 02:21:01;;;;;;;1.87;1.75;;;;;;;3.96;100.00;100106.06;1701472;83;21087;-70
2022/01/02 02:23:30;;;;;;;2.37;2.17;;;;;;;3.88;100.00;100111.33;1691525;83;21099;-69
2022/01/02 02:25:58;;;;;;;2.60;1.95;;;;;;;3.85;100.00;100106.28;1691479;85;21087;-69
2022/01/02 02:28:27;;;;;;;2.42;1.90;;;;;;;3.82;100.00;100108.92;1691447;84;21040;-69
2022/01/02 02:30:56;;;;;;;2.25;1.70;;;;;;;3.80;100.00;100117.03;1683043;84;21519;-69
2022/01/02 02:33:24;;;;;;;2.45;2.10;;;;;;;3.77;100.00;100116.67;1691773;85;21048;-68
2022/01/02 02:35:52;;;;;;;2.92;2.25;;;;;;;3.73;100.00;100129.48;1691587;85;21048;-69
2022/01/02 02:38:19;;;;;;;2.12;1.92;;;;;;;3.75;100.00;100122.23;1691683;85;20988;-69
2022/01/02 02:40:48;;;;;;;2.17;1.90;;;;;;;3.75;100.00;100121.37;1691635;83;21075;-69
2022/01/02 02:51:44;;;;;;;2.45;2.00;;;;;;;3.59;100.00;100147.62;1687721;82;21091;-69
2022/01/02 02:54:06;;;;;;;2.00;1.80;;;;;;;3.63;100.00;100144.14;1690898;85;21123;-69
2022/01/02 02:56:45;;;;;;;2.37;1.92;;;;;;;3.55;100.00;100150.66;1705265;83;21071;-69
2022/01/02 02:59:12;;;;;;;3.55;2.30;;;;;;;3.53;100.00;100147.30;1691520;84;21047;-67
2022/01/02 03:01:40;;;;;;;2.95;2.05;;;;;;;3.52;100.00;100156.23;1691619;85;21035;-69
2022/01/02 03:04:09;;;;;;;2.58;2.12;;;;;;;3.61;100.00;100154.78;1691517;85;21068;-69
2022/01/02 03:06:36;;;;;;;3.12;2.10;;;;;;;3.64;100.00;100155.98;1691400;85;21043;-69
2022/01/02 03:09:10;;;;;;;2.08;1.87;;;;;;;3.65;100.00;100179.72;1691740;83;21516;-69
2022/01/02 03:11:42;;;;;;;3.17;2.27;;;;;;;3.63;100.00;100176.36;1688806;85;21051;-69
2022/01/02 03:14:12;;;;;;;2.20;2.00;;;;;;;3.66;100.00;100175.87;1691523;83;21548;-69
2022/01/02 03:16:40;;;;;;;2.37;1.92;;;;;;;3.73;100.00;100188.03;1691308;84;21044;-69
2022/01/02 03:19:08;;;;;;;1.80;1.70;;;;;;;3.70;100.00;100186.39;1696428;83;21087;-69
2022/01/02 03:21:36;;;;;;;2.50;1.80;;;;;;;3.69;100.00;100195.33;1692152;84;21547;-69
2022/01/02 03:24:04;;;;;;;2.35;2.00;;;;;;;3.57;100.00;100202.36;1691868;84;21078;-69
2022/01/02 03:26:33;;;;;;;3.05;2.22;;;;;;;3.56;100.00;100213.39;1691781;83;21032;-69
2022/01/02 03:29:00;;;;;;;2.00;1.72;;;;;;;3.66;100.00;100211.95;1689441;84;21507;-69
2022/01/02 03:31:27;;;;;;;1.60;1.50;;;;;;;3.65;100.00;100224.26;1691980;83;21059;-70
2022/01/02 03:33:56;;;;;;;2.50;1.77;;;;;;;3.62;100.00;100248.08;1688846;83;21540;-70
2022/01/02 03:36:23;;;;;;;2.10;1.90;;;;;;;3.64;100.00;100264.16;1691034;82;21492;-69
2022/01/02 03:38:50;;;;;;;1.80;1.65;;;;;;;3.64;100.00;100252.70;1711554;83;21020;-70
2022/01/02 03:41:18;;;;;;;2.20;1.50;;;;;;;3.60;100.00;100259.55;1705739;83;21098;-69
2022/01/02 03:43:45;;;;;;;1.95;1.65;;;;;;;3.66;100.00;100271.77;1691712;84;21539;-69
2022/01/02 03:46:13;;;;;;;2.27;1.50;;;;;;;3.59;100.00;100282.07;1686873;83;21040;-69
2022/01/02 03:48:41;;;;;;;2.87;1.50;;;;;;;3.65;100.00;100289.16;1687188;84;21044;-69
2022/01/02 03:51:08;;;;;;;1.30;1.12;;;;;;;3.58;100.00;100290.56;1691799;85;21055;-69
2022/01/02 03:53:35;;;;;;;1.55;1.32;;;;;;;3.65;100.00;100299.34;1689589;83;21582;-70
2022/01/02 03:56:03;;;;;;;3.40;1.30;;;;;;;3.64;100.00;100287.06;1691233;84;21606;-69
2022/01/02 03:58:30;;;;;;;1.72;1.20;;;;;;;3.62;100.00;100309.16;1691418;85;21095;-70
2022/01/02 04:00:58;;;;;;;1.42;1.30;;;;;;;3.62;100.00;100314.25;1691533;83;21112;-70
2022/01/02 04:03:26;;;;;;;1.50;1.35;;;;;;;3.51;100.00;100322.09;1691752;85;21052;-68
2022/01/02 04:05:53;;;;;;;1.32;1.22;;;;;;;3.55;100.00;100325.43;1688474;84;21067;-69
2022/01/02 04:08:20;;;;;;;1.67;1.40;;;;;;;3.52;100.00;100340.74;1691709;83;21488;-68
2022/01/02 04:10:49;;;;;;;2.35;1.42;;;;;;;3.53;100.00;100334.36;1698289;83;21039;-68
2022/01/02 04:13:16;;;;;;;1.20;1.10;;;;;;;3.51;100.00;100345.44;1684831;83;21069;-68
2022/01/02 04:15:43;;;;;;;1.37;1.25;;;;;;;3.47;100.00;100342.52;1695161;83;21067;-68
2022/01/02 04:18:10;;;;;;;1.20;1.10;;;;;;;3.49;100.00;100341.64;1691491;83;21056;-68
2022/01/02 04:20:37;;;;;;;1.30;1.12;;;;;;;3.47;100.00;100342.10;1687393;84;21091;-68
2022/01/02 04:23:05;;;;;;;1.22;1.12;;;;;;;3.44;100.00;100356.58;1688111;84;21044;-68
2022/01/02 04:25:32;;;;;;;2.60;1.22;;;;;;;3.45;100.00;100350.61;1683832;84;21063;-68
2022/01/02 04:28:00;;;;;;;1.17;1.05;;;;;;;3.36;100.00;100357.97;1691538;85;21016;-67
2022/01/02 04:30:27;;;;;;;1.27;1.10;;;;;;;3.40;100.00;100368.06;1691839;85;21032;-67
2022/01/02 04:32:55;;;;;;;1.25;0.95;;;;;;;3.39;100.00;100377.85;1691471;84;21303;-67
2022/01/02 04:35:22;;;;;;;1.22;1.12;;;;;;;3.36;100.00;100390.61;1691626;85;21056;-67
2022/01/02 04:37:50;;;;;;;2.30;1.45;;;;;;;3.33;100.00;100395.77;1691569;83;21016;-68
2022/01/02 04:40:17;;;;;;;1.30;1.20;;;;;;;3.32;100.00;100390.25;1688997;85;21560;-68
2022/01/02 04:42:45;;;;;;;1.30;1.00;;;;;;;3.34;100.00;100402.95;1683719;83;21052;-68
2022/01/02 04:45:12;;;;;;;1.17;1.07;;;;;;;3.35;100.00;100418.20;1692246;84;21516;-67
2022/01/02 04:47:38;;;;;;;1.85;0.90;;;;;;;3.32;100.00;100425.03;1696896;83;21000;-67
2022/01/02 04:50:08;;;;;;;1.05;0.95;;;;;;;3.40;100.00;100408.77;1686395;83;21677;-67
2022/01/02 04:52:36;;;;;;;1.77;1.10;;;;;;;3.36;100.00;100426.23;1693218;84;21070;-68
2022/01/02 04:55:04;;;;;;;1.62;1.10;;;;;;;3.39;100.00;100432.55;1691592;82;21063;-68
2022/01/02 04:57:34;;;;;;;2.08;1.00;;;;;;;3.38;100.00;100443.58;1697566;83;21516;-67
2022/01/02 05:00:05;;;;;;;1.20;1.10;;;;;;;3.36;100.00;100444.04;1691447;85;21572;-67
2022/01/02 05:02:33;;;;;;;1.47;1.00;;;;;;;3.32;100.00;100456.84;1690329;83;21063;-67
2022/01/02 05:05:00;;;;;;;1.30;1.20;;;;;;;3.24;100.00;100452.30;1699803;83;21107;-67
2022/01/02 05:07:28;;;;;;;1.67;1.10;;;;;;;3.25;100.00;100455.27;1691502;84;21036;-68
2022/01/02 05:09:56;;;;;;;0.90;0.90;;;;;;;3.16;100.00;100465.13;1694785;83;21503;-67
2022/01/02 05:12:24;;;;;;;1.45;1.17;;;;;;;3.11;100.00;100465.63;1692188;82;21072;-67
2022/01/02 05:14:50;;;;;;;0.93;0.93;;;;;;;3.06;100.00;100473.74;1707117;83;21040;-67
2022/01/02 05:17:20;;;;;;;1.22;0.90;;;;;;;3.01;100.00;100482.72;1691508;85;21087;-68
2022/01/02 05:19:47;;;;;;;1.60;1.10;;;;;;;3.04;100.00;100478.02;1691506;85;21036;-67
2022/01/02 05:22:15;;;;;;;1.10;0.95;;;;;;;2.99;100.00;100488.25;1689729;85;21532;-68
2022/01/02 05:24:42;;;;;;;1.45;1.10;;;;;;;3.00;100.00;100502.23;1688483;85;21059;-67
2022/01/02 05:27:09;;;;;;;1.65;1.25;;;;;;;2.99;100.00;100510.70;1691781;83;21048;-67
2022/01/02 05:29:37;;;;;;;1.75;1.02;;;;;;;2.96;100.00;100526.42;1693068;84;21040;-67
2022/01/02 05:32:04;;;;;;;1.35;1.20;;;;;;;2.90;100.00;100526.09;1691560;83;21032;-67
2022/01/02 05:34:32;;;;;;;1.20;1.10;;;;;;;2.89;100.00;100535.83;1684953;84;21062;-67
2022/01/02 05:36:59;;;;;;;1.25;1.00;;;;;;;2.94;100.00;100542.98;1670728;83;21064;-67
2022/01/02 05:39:26;;;;;;;2.17;1.32;;;;;;;2.87;100.00;100542.64;1682935;84;21178;-67
2022/01/02 05:41:55;;;;;;;1.60;1.30;;;;;;;2.92;100.00;100545.98;1684011;84;21098;-67
2022/01/02 05:44:23;;;;;;;1.40;1.30;;;;;;;2.89;100.00;100559.16;1685657;82;21522;-68
2022/01/02 05:46:50;;;;;;;1.55;1.07;;;;;;;2.90;100.00;100573.13;1679344;84;21583;-68
2022/01/02 05:49:19;;;;;;;2.30;1.05;;;;;;;2.95;100.00;100575.61;1672177;84;21555;-67
2022/01/02 05:51:46;;;;;;;1.70;1.17;;;;;;;2.90;100.00;100596.41;1680227;82;21531;-67
2022/01/02 05:54:12;;;;;;;1.35;1.10;;;;;;;2.98;100.00;100587.00;1650977;85;21086;-67
2022/01/02 05:56:40;;;;;;;1.05;0.95;;;;;;;2.89;100.00;100599.40;1681691;83;21463;-67
2022/01/02 05:59:07;;;;;;;2.20;1.02;;;;;;;2.88;100.00;100599.41;1682870;84;21452;-67
2022/01/02 06:01:34;;;;;;;1.05;0.90;;;;;;;2.97;100.00;100609.05;1686528;84;21054;-67
2022/01/02 06:04:01;;;;;;;1.42;1.10;;;;;;;2.99;100.00;100606.06;1687354;84;21534;-67
2022/01/02 06:06:29;;;;;;;1.27;1.17;;;;;;;2.95;100.00;100614.58;1685621;84;21546;-68
2022/01/02 06:08:56;;;;;;;1.22;1.00;;;;;;;2.87;100.00;100629.08;1681475;84;21585;-67
2022/01/02 06:11:23;;;;;;;2.12;1.05;;;;;;;2.83;100.00;100635.49;1684481;82;21064;-67
2022/01/02 06:13:51;;;;;;;1.02;0.80;;;;;;;2.86;100.00;100629.95;1681434;84;21044;-66
2022/01/02 06:16:19;;;;;;;1.55;1.10;;;;;;;2.83;100.00;100641.41;1683078;82;21046;-67
2022/01/02 06:18:46;;;;;;;1.20;1.10;;;;;;;2.88;100.00;100640.95;1690955;82;21132;-67
2022/01/02 06:21:15;;;;;;;1.20;1.10;;;;;;;2.86;100.00;100639.26;1692571;83;21543;-66
2022/01/02 06:23:41;;;;;;;1.35;1.00;;;;;;;2.89;100.00;100679.48;1687314;83;21009;-66
2022/01/02 06:26:09;;;;;;;1.15;0.90;;;;;;;3.00;100.00;100653.53;1689975;83;21031;-66
2022/01/02 06:28:37;;;;;;;1.10;1.00;;;;;;;2.94;100.00;100662.91;1724888;83;21050;-67
2022/01/02 06:31:04;;;;;;;0.90;0.88;;;;;;;2.81;100.00;100682.53;1709108;83;21044;-67
2022/01/02 06:33:31;;;;;;;2.55;1.00;;;;;;;2.73;100.00;100678.78;1717771;83;21552;-67
2022/01/02 06:35:58;;;;;;;0.90;0.80;;;;;;;2.79;100.00;100688.06;1690182;83;21051;-66
2022/01/02 06:38:25;;;;;;;1.23;0.90;;;;;;;2.66;100.00;100682.69;1711774;83;20986;-66
2022/01/02 06:40:54;;;;;;;1.37;0.82;;;;;;;2.70;100.00;100703.41;1720302;81;20998;-66
2022/01/02 06:43:21;;;;;;;1.15;0.90;;;;;;;2.70;100.00;100703.41;1710700;84;21511;-67
2022/01/02 06:45:49;;;;;;;1.00;0.90;;;;;;;2.62;100.00;100717.45;1723214;81;21041;-67
2022/01/02 06:48:16;;;;;;;2.17;1.10;;;;;;;2.65;100.00;100728.01;1693707;83;21040;-66
2022/01/02 06:50:43;;;;;;;1.35;0.90;;;;;;;2.67;100.00;100736.46;1708735;82;21083;-66
2022/01/02 06:53:11;;;;;;;2.20;1.27;;;;;;;2.65;100.00;100726.30;1701644;82;21511;-66
2022/01/02 06:55:40;;;;;;;1.72;1.10;;;;;;;2.65;100.00;100726.30;1688279;82;21088;-66
2022/01/02 06:58:07;;;;;;;1.35;1.10;;;;;;;2.72;100.00;100738.12;1697575;81;21480;-66
2022/01/02 07:00:34;;;;;;;1.10;1.00;;;;;;;2.79;100.00;100750.34;1692407;84;21534;-66
2022/01/02 07:03:02;;;;;;;1.20;1.10;;;;;;;2.78;100.00;100744.86;1678591;84;21004;-65
2022/01/02 07:05:29;;;;;;;1.40;0.93;;;;;;;2.72;100.00;100756.34;1688168;84;21019;-66
2022/01/02 07:07:57;;;;;;;1.20;1.10;;;;;;;2.71;100.00;100754.65;1693939;84;21079;-66
2022/01/02 07:10:24;;;;;;;1.32;1.10;;;;;;;2.75;100.00;100732.16;1679957;83;21078;-66
2022/01/02 07:12:53;;;;;;;1.77;1.22;;;;;;;2.80;100.00;100764.32;1682973;84;21060;-66
2022/01/02 07:15:20;;;;;;;2.15;1.60;;;;;;;2.80;100.00;100766.03;1697745;84;22436;-66
2022/01/02 07:17:48;;;;;;;1.32;1.10;;;;;;;2.82;100.00;100765.59;1692302;84;21099;-66
2022/01/02 07:20:15;;;;;;;2.55;1.20;;;;;;;2.83;100.00;100776.16;1682499;84;21525;-66
2022/01/02 07:22:42;;;;;;;2.02;1.45;;;;;;;2.78;100.00;100780.02;1668685;86;21096;-67
2022/01/02 07:25:11;;;;;;;1.20;1.10;;;;;;;2.76;100.00;100778.34;1669812;84;21045;-66
2022/01/02 07:27:39;;;;;;;2.20;1.30;;;;;;;2.78;100.00;100781.72;1688056;85;21092;-66
2022/01/02 07:30:08;;;;;;;1.15;1.05;;;;;;;2.80;100.00;100799.08;1667600;84;21129;-66
2022/01/02 07:32:37;;;;;;;1.87;1.30;;;;;;;2.80;100.00;100790.18;1678409;85;21033;-65
2022/01/02 07:35:07;;;;;;;2.33;1.25;;;;;;;2.77;100.00;100799.92;1688431;83;21556;-66
2022/01/02 07:37:35;;;;;;;1.60;1.20;;;;;;;2.89;100.00;100818.06;1679572;85;21074;-66
2022/01/02 07:40:05;;;;;;;2.37;1.22;;;;;;;2.79;100.00;100811.36;1706233;82;21056;-65
2022/01/02 07:42:33;;;;;;;2.58;1.20;;;;;;;2.75;100.00;100831.30;1705281;83;21541;-66
2022/01/02 07:45:02;;;;;;;1.90;1.47;;;;;;;2.65;100.00;100812.72;1684845;83;21077;-67
2022/01/02 07:47:29;;;;;;;3.12;1.55;;;;;;;2.73;100.00;100843.17;1689292;84;21057;-66
2022/01/02 07:49:56;;;;;;;1.67;1.40;;;;;;;2.82;100.00;100826.60;1690909;84;21060;-67
2022/01/02 07:52:23;;;;;;;1.50;1.00;;;;;;;2.98;100.00;100835.80;1678937;85;21026;-67
2022/01/02 07:54:50;;;;;;;1.50;0.98;;;;;;;3.03;100.00;100854.00;1701427;84;21080;-66
2022/01/02 07:57:19;;;;;;;1.07;0.98;;;;;;;3.15;100.00;100842.02;1687339;84;22065;-66
2022/01/02 07:59:46;;;;;;;1.87;1.40;;;;;;;3.15;100.00;100842.02;1672100;85;21056;-66
2022/01/02 08:02:12;;;;;;;4.25;1.75;;;;;;;3.10;100.00;100834.88;1682906;84;21141;-66
2022/01/02 08:04:39;;;;;;;2.35;1.80;;;;;;;3.05;100.00;100841.68;1680257;84;21537;-66
2022/01/02 08:07:06;;;;;;;2.95;2.08;;;;;;;3.01;100.00;100857.81;1679483;85;21069;-66
2022/01/02 08:09:33;;;;;;;2.33;1.87;;;;;;;2.98;100.00;100860.37;1704915;84;21045;-66
2022/01/02 08:11:59;;;;;;;1.17;1.07;;;;;;;2.92;100.00;100873.12;1709389;83;21025;-66
2022/01/02 08:14:26;;;;;;;2.72;1.50;;;;;;;2.76;100.00;100878.33;1699882;83;21051;-66
2022/01/02 08:16:53;;;;;;;2.80;1.77;;;;;;;2.73;100.00;100870.70;1706733;84;21021;-66
2022/01/02 08:19:20;;;;;;;3.20;1.40;;;;;;;2.90;100.00;100870.62;1709543;83;21136;-66
2022/01/02 08:21:48;;;;;;;1.35;1.12;;;;;;;3.00;100.00;100879.00;1709387;83;21089;-67
2022/01/02 08:24:14;;;;;;;1.05;0.85;;;;;;;2.84;100.00;100899.03;1709270;84;21025;-66
2022/01/02 08:26:41;;;;;;;1.00;0.90;;;;;;;2.63;100.00;100896.19;1713785;83;21037;-65
2022/01/02 08:29:08;;;;;;;1.35;1.00;;;;;;;2.36;100.00;100891.66;1721591;83;21553;-66
2022/01/02 08:31:35;;;;;;;1.92;1.10;;;;;;;2.36;100.00;100891.66;1711777;83;21080;-65
2022/01/02 08:34:03;;;;;;;0.88;0.80;;;;;;;2.41;100.00;100969.96;1709187;83;21057;-65
2022/01/02 08:36:33;;;;;;;1.35;1.00;;;;;;;2.41;100.00;100921.69;1709257;84;21021;-65
2022/01/02 08:38:59;;;;;;;1.57;1.00;;;;;;;2.33;100.00;100925.55;1700678;83;21016;-66
2022/01/02 08:41:26;;;;;;;1.82;1.15;;;;;;;2.30;100.00;100914.55;1709263;84;21042;-65
2022/01/02 08:43:53;;;;;;;1.67;1.00;;;;;;;2.31;100.00;100946.70;1708993;83;21057;-66
2022/01/02 08:46:20;;;;;;;1.57;1.10;;;;;;;2.35;100.00;100921.71;1710376;83;21073;-67
2022/01/02 08:48:47;;;;;;;1.05;1.00;;;;;;;2.26;100.00;100930.65;1725692;82;21045;-65
2022/01/02 08:51:16;;;;;;;1.92;1.20;;;;;;;2.31;100.00;100930.19;1710062;83;21081;-67
2022/01/02 08:53:43;;;;;;;1.70;1.10;;;;;;;2.38;100.00;100952.20;1724771;83;21049;-67
2022/01/02 08:56:10;;;;;;;1.12;1.00;;;;;;;2.38;100.00;100940.77;1692359;83;21099;-66
2022/01/02 08:58:37;;;;;;;1.20;1.10;;;;;;;2.42;100.00;100967.86;1684220;85;21547;-67
2022/01/02 09:01:03;;;;;;;1.67;1.10;;;;;;;2.39;100.00;100952.61;1668987;85;21004;-66
2022/01/02 09:03:33;;;;;;;1.95;1.17;;;;;;;2.47;100.00;100940.72;1679503;84;21126;-67
2022/01/02 09:05:59;;;;;;;1.80;1.20;;;;;;;2.39;100.00;100953.88;1673606;85;20996;-66
2022/01/02 09:08:26;;;;;;;2.33;1.35;;;;;;;2.34;100.00;100960.25;1670055;85;21083;-67
2022/01/02 09:10:53;;;;;;;1.35;1.20;;;;;;;2.39;100.00;100972.93;1683197;85;21536;-66
2022/01/02 09:13:23;;;;;;;1.98;1.45;;;;;;;2.23;100.00;100950.56;1657470;84;21043;-67
2022/01/02 09:15:52;;;;;;;1.50;1.20;;;;;;;2.34;100.00;100948.81;1663292;86;21108;-66
2022/01/02 09:18:18;;;;;;;1.92;1.30;;;;;;;2.44;100.00;100954.72;1681518;84;21071;-66
2022/01/02 09:20:45;;;;;;;3.17;1.72;;;;;;;2.60;100.00;100958.06;1680674;84;21068;-66
2022/01/02 09:23:12;;;;;;;2.70;1.42;;;;;;;2.57;100.00;100951.27;1684087;85;21016;-66
2022/01/02 09:25:41;;;;;;;5.03;2.72;;;;;;;2.59;100.00;100955.92;1658412;85;21057;-66
2022/01/02 09:28:09;;;;;;;7.75;2.90;;;;;;;2.30;100.00;100964.09;1652198;85;21052;-65
2022/01/02 09:30:38;;;;;;;8.95;3.60;;;;;;;2.30;100.00;100964.09;1662201;86;21012;-66
2022/01/02 09:33:08;;;;;;;6.37;2.80;;;;;;;2.22;98.65;100982.31;1653552;85;21087;-66
2022/01/02 09:35:37;;;;;;;5.78;2.83;;;;;;;2.22;98.65;100982.31;1672237;85;21051;-66
2022/01/02 09:38:04;;;;;;;4.20;1.90;;;;;;;2.15;95.31;100975.10;1672587;84;21614;-66
2022/01/02 09:40:32;;;;;;;3.47;1.80;;;;;;;2.15;95.31;100975.10;1662457;84;21039;-67
2022/01/02 09:43:00;;;;;;;1.80;1.25;;;;;;;2.23;95.40;100984.86;1663169;84;21016;-66
2022/01/02 09:45:27;;;;;;;1.40;1.07;;;;;;;2.15;93.06;100982.33;1666495;84;21094;-66
2022/01/02 09:47:55;;;;;;;2.30;1.52;;;;;;;2.17;90.24;100980.63;1651911;87;21579;-65
2022/01/02 09:50:22;;;;;;;3.65;2.20;;;;;;;2.23;89.53;100987.80;1665245;84;21072;-66
2022/01/02 09:52:50;;;;;;;2.20;1.60;;;;;;;2.23;89.53;100987.80;1666824;86;21086;-66
2022/01/02 09:55:17;;;;;;;3.80;2.00;;;;;;;2.38;89.31;100991.58;1664963;86;21075;-66
2022/01/02 09:57:47;;;;;;;3.92;2.12;;;;;;;2.25;85.50;100992.05;1662805;86;21059;-66
2022/01/02 10:00:17;;;;;;;5.62;2.10;;;;;;;2.19;86.73;101001.79;1665284;85;21048;-66
2022/01/02 10:03:00;;;;;;;4.97;2.25;;;;;;;2.27;87.20;101000.51;1652828;86;21053;-65
2022/01/02 10:05:30;;;;;;;4.80;2.35;;;;;;;2.33;86.45;101010.66;1655620;85;21044;-65
2022/01/02 10:07:57;;;;;;;3.47;1.80;;;;;;;2.18;84.74;101023.37;1658484;84;21069;-65
2022/01/02 10:10:33;;;;;;;1.85;1.50;;;;;;;2.12;85.67;101018.30;1650942;85;21097;-65
2022/01/02 10:13:03;;;;;;;1.87;1.20;;;;;;;2.03;85.92;101028.45;1652475;86;21053;-65
2022/01/02 10:15:34;;;;;;;0.90;0.82;;;;;;;1.85;85.01;101039.05;1662097;85;21556;-65
2022/01/02 10:18:08;;;;;;;1.00;0.90;;;;;;;1.70;85.17;101041.13;1661204;86;21104;-65
2022/01/02 10:20:43;;;;;;;;;;;;;;;1.65;86.15;101030.15;1652938;85;21094;-66
2022/01/02 10:23:16;;;;;;;;;;;;;;;1.88;84.71;101026.77;1657030;85;20107;-66
2022/01/02 10:26:03;;;;;;;2.12;1.50;;;;;;;1.97;82.82;101034.41;1677296;82;20150;-67
2022/01/02 10:28:39;;;;;;;2.27;1.40;;;;;;;2.04;82.45;101042.85;1699190;84;21062;-66
2022/01/02 10:31:13;;;;;;;2.98;1.30;;;;;;;2.06;80.79;101038.19;1723001;83;21066;-65
2022/01/02 10:33:57;;;;;;;2.77;1.77;;;;;;;1.86;77.97;101043.70;1713790;83;21531;-65
2022/01/02 10:36:35;;;;;;;1.67;1.17;;;;;;;1.71;78.02;101036.50;1714475;83;21028;-65
2022/01/02 10:39:15;;;;;;;2.92;1.37;;;;;;;1.69;79.10;101037.35;1717696;83;21047;-66
2022/01/02 10:41:45;;;;;;;2.80;1.50;;;;;;;1.49;78.62;101056.34;1716554;82;21028;-66
2022/01/02 10:44:31;;;;;;;2.58;1.37;;;;;;;1.36;78.84;101053.78;1712068;83;21006;-66
2022/01/02 10:47:24;;;;;;;2.55;1.60;;;;;;;1.48;79.10;101071.13;1673991;84;21074;-66
2022/01/02 10:50:07;;;;;;;2.70;1.70;;;;;;;1.56;79.27;101046.22;1680285;83;21045;-67
2022/01/02 10:52:39;;;;;;;3.17;1.90;;;;;;;1.46;77.46;101075.35;1722217;83;21018;-66
2022/01/02 10:55:22;;;;;;;2.47;1.90;;;;;;;1.51;77.93;101055.92;1723336;83;21527;-66
2022/01/02 10:57:52;;;;;;;2.70;1.87;;;;;;;1.51;77.91;101060.57;1699183;83;21583;-66
2022/01/02 11:00:22;;;;;;;2.98;1.60;;;;;;;1.56;77.75;101065.64;1664123;85;20991;-66
2022/01/02 11:02:50;;;;;;;2.62;1.60;;;;;;;1.46;76.98;101067.34;1699539;83;21515;-68
2022/01/02 11:05:21;;;;;;;2.40;1.55;;;;;;;1.54;78.17;101069.47;1698976;83;20996;-67
2022/01/02 11:07:54;;;;;;;4.78;2.15;;;;;;;1.48;78.78;101075.80;1685508;84;21067;-66
2022/01/02 11:10:23;;;;;;;2.83;1.72;;;;;;;1.32;78.62;101096.47;1685772;84;21012;-68
2022/01/02 11:12:53;;;;;;;3.25;1.92;;;;;;;1.24;79.19;101090.92;1672447;84;21077;-68
2022/01/02 11:15:26;;;;;;;4.65;2.47;;;;;;;1.00;79.75;101083.23;1675241;84;21543;-68
2022/01/02 11:17:54;;;;;;;5.42;2.47;;;;;;;0.91;79.68;101084.87;1682306;83;20988;-67
2022/01/02 11:20:32;;;;;;;6.12;2.45;;;;;;;0.83;80.87;101104.27;1677111;84;21096;-66
2022/01/02 11:23:14;;;;;;;;;;;;;;;0.82;80.76;101111.02;1682644;85;21056;-67
2022/01/02 11:25:51;;;;;;;5.37;2.50;;;;;;;0.89;81.18;101102.63;1679828;85;20640;-68
2022/01/02 11:28:41;;;;;;;6.95;3.10;;;;;;;0.72;78.99;101130.39;1682153;84;21481;-67
2022/01/02 11:31:09;;;;;;;5.80;2.58;;;;;;;0.56;79.72;101138.72;1668098;84;21048;-67
2022/01/02 11:33:41;;;;;;;4.92;2.42;;;;;;;0.46;79.60;101141.60;1664967;84;21547;-67
2022/01/02 11:36:35;;;;;;;3.92;2.05;;;;;;;0.42;80.14;101127.22;1687046;84;21025;-67
2022/01/02 11:39:10;;;;;;;2.85;2.10;;;;;;;0.40;80.05;101136.06;1685726;83;21031;-68
2022/01/02 11:41:42;;;;;;;2.98;2.20;;;;;;;0.41;80.91;101144.53;1684965;85;21033;-67
2022/01/02 11:44:13;;;;;;;2.45;1.82;;;;;;;0.39;81.10;101135.65;1676855;84;21092;-68
2022/01/02 11:46:56;;;;;;;2.30;1.62;;;;;;;0.37;81.51;101123.39;1663761;86;21071;-68